Adamsville, Ohio
Current Conditions -  °F | °C
As of 10:53 PM on Tuesday 21 Oct 2014 (Local Time) from KZZV Reporting Station
Overcast Overcast  
Wind Chill: 40°   Ceiling: 1600
Heat Index: 45°   Visibility: 10mi
Dew Point: 40°   Wind: 10mph
Humidity: 82%   Direction: 330°NNW
Pressure: 30.11"   Gusts: NA
Location:  40.07°N, 81.88°W
Report Text: KZZV 220253Z AUTO 33009KT 10SM OVC016 07/04 A3011 RMK AO2 SLP197 T00720044 51013
Loading
Personal Weather Stations






























Interactive Weather Map
Tropical Storm Tracking
New forecast layout! Learn more

10-Day Weather Forecast

Advertisements
Track Severe Weather on mobile